Time;durP1;ratioP1;P1;durP2;ratioP2;P2;SDS_P1;SDS_P2;PMS_P1;PMS_P2;Temp;Humidity;BMP_temperature;BMP_pressure;BME280_temperature;BME280_humidity;BME280_pressure;Samples;Min_cycle;Max_cycle;Signal;HPM_P1;HPM_P2
2022/01/19 00:01:35;;;;;;;8.60;3.10;;;23.10;94.90;;;;;;5073950;28;20039;-60
2022/01/19 00:04:03;;;;;;;11.00;4.00;;;23.10;95.20;;;;;;5073347;28;20379;-58
2022/01/19 00:06:30;;;;;;;9.75;3.85;;;23.10;95.00;;;;;;5073552;28;20159;-61
2022/01/19 00:08:57;;;;;;;11.73;3.83;;;23.10;94.90;;;;;;5073228;28;20032;-57
2022/01/19 00:11:25;;;;;;;10.25;3.65;;;23.10;94.90;;;;;;5073368;28;20052;-60
2022/01/19 00:13:53;;;;;;;9.40;3.53;;;23.10;94.90;;;;;;5073051;28;20020;-61
2022/01/19 00:16:21;;;;;;;9.80;4.10;;;23.10;94.90;;;;;;5073546;28;20020;-55
2022/01/19 00:18:49;;;;;;;9.70;3.65;;;23.20;94.90;;;;;;5073248;28;20025;-58
2022/01/19 00:21:16;;;;;;;11.50;5.10;;;23.10;94.90;;;;;;5073315;28;20069;-56
2022/01/19 00:23:43;;;;;;;11.95;3.63;;;23.20;94.90;;;;;;5072079;28;20450;-56
2022/01/19 00:26:11;;;;;;;8.73;3.03;;;23.20;94.90;;;;;;5073274;28;20086;-58
2022/01/19 00:28:38;;;;;;;10.05;3.60;;;23.20;94.90;;;;;;5073284;28;20032;-56
2022/01/19 00:31:06;;;;;;;9.43;3.55;;;23.20;94.90;;;;;;5073250;28;20134;-57
2022/01/19 00:33:33;;;;;;;8.70;3.25;;;23.20;94.90;;;;;;5071459;28;20044;-55
2022/01/19 00:36:01;;;;;;;12.88;4.63;;;23.20;94.90;;;;;;5072713;28;20028;-60
2022/01/19 00:38:28;;;;;;;11.77;4.00;;;23.20;94.90;;;;;;5072958;28;20021;-61
2022/01/19 00:40:57;;;;;;;9.40;3.92;;;23.20;94.90;;;;;;5071263;28;20032;-55
2022/01/19 00:43:25;;;;;;;12.27;3.55;;;23.20;94.90;;;;;;5072798;28;20047;-55
2022/01/19 00:45:54;;;;;;;13.55;4.28;;;23.20;94.80;;;;;;5072579;28;20036;-55
2022/01/19 00:48:21;;;;;;;10.93;3.28;;;23.20;94.80;;;;;;5072622;28;20025;-55
2022/01/19 00:50:50;;;;;;;6.57;2.85;;;23.20;94.80;;;;;;5072657;28;20029;-59
2022/01/19 00:53:18;;;;;;;9.82;3.45;;;23.20;94.80;;;;;;5072432;28;20108;-60
2022/01/19 00:55:45;;;;;;;8.20;3.30;;;23.20;94.70;;;;;;5072443;28;20048;-58
2022/01/19 00:58:13;;;;;;;8.70;3.05;;;23.20;94.70;;;;;;5072173;28;20025;-55
2022/01/19 01:00:40;;;;;;;10.18;3.58;;;23.20;94.70;;;;;;5072266;28;20024;-60
2022/01/19 01:03:08;;;;;;;8.23;3.28;;;23.30;94.80;;;;;;5071597;28;20032;-52
2022/01/19 01:05:35;;;;;;;13.52;4.38;;;23.30;94.80;;;;;;5072221;28;20039;-61
2022/01/19 01:08:04;;;;;;;6.20;3.08;;;23.20;94.70;;;;;;5072007;28;20104;-54
2022/01/19 01:10:40;;;;;;;10.52;4.40;;;23.20;94.70;;;;;;5072466;28;20025;-60
2022/01/19 01:16:17;;;;;;;9.80;3.47;;;23.30;94.70;;;;;;5052809;28;20043;-58
2022/01/19 01:18:44;;;;;;;9.77;3.92;;;23.30;94.70;;;;;;5070637;28;20028;-58
2022/01/19 01:21:12;;;;;;;8.25;3.20;;;23.30;94.70;;;;;;5072089;28;20016;-59
2022/01/19 01:23:39;;;;;;;10.15;3.47;;;23.30;94.60;;;;;;5071878;28;20078;-57
2022/01/19 01:26:07;;;;;;;9.75;3.53;;;23.30;94.60;;;;;;5072041;28;20075;-59
2022/01/19 01:28:34;;;;;;;10.25;3.55;;;23.30;94.60;;;;;;5070977;28;20035;-55
2022/01/19 01:31:03;;;;;;;7.75;3.42;;;23.30;94.60;;;;;;5072068;28;20071;-56
2022/01/19 01:33:30;;;;;;;6.25;2.83;;;23.30;94.60;;;;;;5071682;28;20028;-61
2022/01/19 01:35:58;;;;;;;9.35;3.17;;;23.30;94.60;;;;;;5071856;28;20412;-58
2022/01/19 01:38:25;;;;;;;9.02;3.30;;;23.30;94.60;;;;;;5071993;28;20036;-56
2022/01/19 01:40:53;;;;;;;10.77;3.83;;;23.30;94.60;;;;;;5072243;28;20494;-56
2022/01/19 01:43:21;;;;;;;9.43;3.65;;;23.40;94.60;;;;;;5072077;28;20051;-60
2022/01/19 01:45:53;;;;;;;11.95;3.45;;;23.40;94.50;;;;;;5070766;28;20082;-53
2022/01/19 01:48:24;;;;;;;9.02;3.15;;;23.40;94.50;;;;;;5071914;28;20108;-50
2022/01/19 01:53:38;;;;;;;9.80;3.10;;;23.40;94.50;;;;;;5072015;28;20051;-52
2022/01/19 01:56:11;;;;;;;7.38;3.20;;;23.40;94.50;;;;;;5071502;28;20052;-59
2022/01/19 01:58:42;;;;;;;10.43;3.92;;;23.40;94.50;;;;;;5071742;28;20025;-59
2022/01/19 02:01:11;;;;;;;11.73;3.35;;;23.40;94.40;;;;;;5072294;28;20029;-58
2022/01/19 02:03:40;;;;;;;7.57;3.15;;;23.50;94.40;;;;;;5071917;28;20017;-59
2022/01/19 02:08:50;;;;;;;9.02;3.17;;;23.50;94.40;;;;;;5071202;28;20027;-58
2022/01/19 02:23:18;;;;;;;10.13;3.30;;;23.90;93.70;;;;;;5075860;28;20028;-60
2022/01/19 02:25:49;;;;;;;9.70;3.22;;;23.90;93.50;;;;;;5076334;28;20037;-56
2022/01/19 02:40:10;;;;;;;9.75;3.72;;;24.10;93.10;;;;;;5075793;28;20039;-54
2022/01/19 02:42:11;;;;;;;10.38;3.17;;;24.10;93.00;;;;;;5074350;28;20035;-59
2022/01/19 02:49:54;;;;;;;9.32;2.85;;;24.10;92.90;;;;;;5075347;28;20059;-53
2022/01/19 02:52:23;;;;;;;7.75;2.50;;;24.10;93.00;;;;;;5074834;28;20024;-55
2022/01/19 02:54:52;;;;;;;10.70;3.55;;;24.10;93.10;;;;;;5074407;28;20044;-54
2022/01/19 02:57:24;;;;;;;8.73;3.03;;;24.10;93.00;;;;;;5073134;28;20082;-57
2022/01/19 03:10:37;;;;;;;7.10;3.10;;;24.10;93.10;;;;;;5074609;28;20052;-59
2022/01/19 03:13:06;;;;;;;8.93;2.97;;;24.10;93.10;;;;;;5074385;28;20103;-60
2022/01/19 03:15:34;;;;;;;9.50;3.22;;;24.10;93.20;;;;;;5073156;28;20489;-61
2022/01/19 03:18:01;;;;;;;8.13;2.95;;;24.10;93.20;;;;;;5074301;28;20032;-61
2022/01/19 03:20:30;;;;;;;10.27;3.80;;;24.10;93.20;;;;;;5072877;28;20085;-60
2022/01/19 03:23:13;;;;;;;9.10;2.90;;;24.10;93.20;;;;;;5074268;28;20028;-61
2022/01/19 03:25:40;;;;;;;7.78;2.83;;;24.10;93.20;;;;;;5073872;28;20024;-58
2022/01/19 03:28:08;;;;;;;7.05;2.70;;;24.10;93.30;;;;;;5074341;28;20108;-55
2022/01/19 03:30:35;;;;;;;9.48;3.03;;;24.10;93.20;;;;;;5074519;28;20103;-55
2022/01/19 03:33:03;;;;;;;13.95;3.03;;;24.10;93.20;;;;;;5074047;28;20033;-52
2022/01/19 03:35:31;;;;;;;9.57;3.33;;;24.10;93.10;;;;;;5074334;28;20032;-54
2022/01/19 03:37:58;;;;;;;7.95;3.30;;;24.10;93.00;;;;;;5073814;28;20455;-59
2022/01/19 03:40:25;;;;;;;6.88;2.67;;;24.10;93.10;;;;;;5074320;28;20025;-53
2022/01/19 03:42:56;;;;;;;8.40;3.00;;;24.10;93.00;;;;;;5074042;28;20086;-52
2022/01/19 03:45:23;;;;;;;6.68;2.30;;;24.20;93.20;;;;;;5074098;28;20489;-61
2022/01/19 03:48:05;;;;;;;7.72;2.42;;;24.20;93.00;;;;;;5073534;28;20028;-61
2022/01/19 03:50:34;;;;;;;8.70;2.85;;;24.20;93.10;;;;;;5073414;28;20036;-58
2022/01/19 03:53:02;;;;;;;8.70;2.70;;;24.30;92.90;;;;;;5073644;28;20079;-61
2022/01/19 03:55:29;;;;;;;10.63;3.63;;;24.30;92.70;;;;;;5073377;28;20052;-58
2022/01/19 03:57:57;;;;;;;9.25;2.85;;;24.30;92.70;;;;;;5073552;28;20372;-58
2022/01/19 04:00:24;;;;;;;10.45;3.10;;;24.30;92.70;;;;;;5073565;28;20098;-50
2022/01/19 04:02:51;;;;;;;7.43;3.30;;;24.40;92.60;;;;;;5072152;28;20020;-58
2022/01/19 04:05:27;;;;;;;13.00;2.90;;;24.40;92.70;;;;;;5073291;28;20043;-56
2022/01/19 04:07:55;;;;;;;9.13;3.55;;;24.40;92.60;;;;;;5073380;28;20025;-61
2022/01/19 04:10:22;;;;;;;9.90;3.13;;;24.40;92.40;;;;;;5073445;28;20046;-57
2022/01/19 04:13:08;;;;;;;7.78;3.38;;;24.50;92.50;;;;;;5073651;28;20036;-57
2022/01/19 04:15:38;;;;;;;8.63;2.95;;;24.50;92.50;;;;;;5073352;28;20467;-54
2022/01/19 04:18:06;;;;;;;9.45;4.38;;;24.50;92.50;;;;;;5073489;28;20107;-61
2022/01/19 04:20:41;;;;;;;9.15;2.97;;;24.50;92.50;;;;;;5073560;28;20026;-52
2022/01/19 04:23:08;;;;;;;9.00;2.80;;;24.50;92.40;;;;;;5072815;28;20033;-60
2022/01/19 04:25:36;;;;;;;9.68;3.13;;;24.40;92.50;;;;;;5072725;28;20072;-55
2022/01/19 04:28:07;;;;;;;12.45;3.63;;;24.40;92.50;;;;;;5072603;28;20033;-54
2022/01/19 04:30:36;;;;;;;9.10;2.95;;;24.40;92.50;;;;;;5072927;28;20032;-51
2022/01/19 04:35:44;;;;;;;7.97;2.92;;;24.40;92.50;;;;;;5072130;28;20032;-57
2022/01/19 04:47:16;;;;;;;5.90;2.13;;;24.30;92.80;;;;;;5072949;28;20059;-49
2022/01/19 05:06:09;;;;;;;7.13;2.90;;;24.30;92.80;;;;;;5072465;28;20134;-60
2022/01/19 05:13:53;;;;;;;7.57;2.88;;;24.30;92.80;;;;;;5072224;28;20039;-54
2022/01/19 05:16:21;;;;;;;11.45;3.38;;;24.30;92.90;;;;;;5072420;28;20051;-52
2022/01/19 05:18:50;;;;;;;5.22;2.65;;;24.20;92.80;;;;;;5072018;28;20021;-54
2022/01/19 05:21:18;;;;;;;8.52;2.55;;;24.20;93.20;;;;;;5072166;28;20074;-61
2022/01/19 05:23:45;;;;;;;8.50;2.67;;;24.20;92.90;;;;;;5072099;28;20093;-54
2022/01/19 05:26:13;;;;;;;9.07;2.67;;;24.20;93.00;;;;;;5072129;28;20489;-55
2022/01/19 05:28:41;;;;;;;5.85;2.40;;;24.20;93.10;;;;;;5072135;28;20076;-56
2022/01/19 05:31:08;;;;;;;14.55;3.03;;;24.10;93.10;;;;;;5070824;28;20032;-57
2022/01/19 05:33:36;;;;;;;6.72;2.42;;;24.10;93.10;;;;;;5072289;28;20032;-57
2022/01/19 05:36:04;;;;;;;8.90;2.53;;;24.10;93.20;;;;;;5071662;28;20437;-61
2022/01/19 05:38:31;;;;;;;9.77;3.03;;;24.10;93.20;;;;;;5072604;28;20093;-60
2022/01/19 05:40:59;;;;;;;9.32;2.97;;;24.10;93.20;;;;;;5071904;28;20056;-55
2022/01/19 05:43:26;;;;;;;8.85;3.30;;;24.00;93.30;;;;;;5071788;28;20047;-55
2022/01/19 05:45:54;;;;;;;8.55;2.67;;;24.00;93.30;;;;;;5072007;28;20032;-64
2022/01/19 05:48:21;;;;;;;10.05;3.10;;;24.00;93.40;;;;;;5071722;28;20472;-56
2022/01/19 05:50:52;;;;;;;7.22;2.47;;;24.00;93.40;;;;;;5072009;28;20082;-55
2022/01/19 05:53:19;;;;;;;8.30;2.97;;;24.00;93.40;;;;;;5071939;28;20450;-57
2022/01/19 05:55:47;;;;;;;7.88;2.40;;;24.00;93.40;;;;;;5071627;28;20447;-56
2022/01/19 05:58:14;;;;;;;14.43;2.90;;;24.00;93.30;;;;;;5071228;28;20134;-57
2022/01/19 06:00:42;;;;;;;12.43;3.67;;;23.90;93.20;;;;;;5071828;28;20028;-57
2022/01/19 06:03:09;;;;;;;10.30;3.50;;;23.90;92.50;;;;;;5071524;28;20383;-53
2022/01/19 06:05:37;;;;;;;18.38;3.63;;;23.90;92.60;;;;;;5071425;28;20376;-58
2022/01/19 06:10:48;;;;;;;10.63;2.70;;;24.00;92.40;;;;;;5071739;28;20028;-56
2022/01/19 06:13:18;;;;;;;9.30;3.00;;;24.00;92.60;;;;;;5071943;28;20021;-53
2022/01/19 06:15:47;;;;;;;13.88;2.95;;;24.10;92.40;;;;;;5072119;28;20129;-60
2022/01/19 06:18:15;;;;;;;18.13;3.50;;;24.10;92.20;;;;;;5071320;28;20021;-57
2022/01/19 06:20:44;;;;;;;16.23;3.28;;;24.10;91.50;;;;;;5071710;28;20032;-57
2022/01/19 06:23:12;;;;;;;11.55;4.10;;;24.10;91.60;;;;;;5071492;28;20024;-54
2022/01/19 06:25:39;;;;;;;15.75;3.42;;;24.10;91.40;;;;;;5070261;28;20036;-61
2022/01/19 06:28:07;;;;;;;12.27;3.20;;;24.10;90.20;;;;;;5071151;28;20025;-56
2022/01/19 06:30:34;;;;;;;17.58;3.45;;;24.10;91.70;;;;;;5071510;28;20362;-52
2022/01/19 06:33:02;;;;;;;16.58;3.67;;;24.10;91.80;;;;;;5071113;28;20025;-57
2022/01/19 06:35:30;;;;;;;8.10;2.10;;;24.10;91.80;;;;;;5071394;28;20070;-55
2022/01/19 06:37:57;;;;;;;11.35;2.60;;;24.20;91.90;;;;;;5071378;28;20078;-56
2022/01/19 06:40:29;;;;;;;12.45;2.95;;;24.20;91.70;;;;;;5071588;28;20371;-63
2022/01/19 06:42:57;;;;;;;11.05;3.33;;;24.20;91.80;;;;;;5070506;28;20475;-55
2022/01/19 06:45:24;;;;;;;12.77;3.63;;;24.20;91.90;;;;;;5071321;28;20482;-58
2022/01/19 06:47:52;;;;;;;13.35;3.20;;;24.20;91.90;;;;;;5071399;28;20024;-54
2022/01/19 06:50:20;;;;;;;13.40;3.60;;;24.20;91.90;;;;;;5070941;28;20076;-56
2022/01/19 06:52:48;;;;;;;12.27;3.25;;;24.10;91.30;;;;;;5070939;28;20028;-59
2022/01/19 06:55:17;;;;;;;11.30;3.63;;;23.90;92.20;;;;;;5071053;28;20068;-55
2022/01/19 06:57:45;;;;;;;14.57;4.18;;;23.90;92.20;;;;;;5071817;28;20056;-54
2022/01/19 07:00:14;;;;;;;14.05;2.53;;;24.00;92.20;;;;;;5073362;28;20025;-55
2022/01/19 07:02:44;;;;;;;13.68;3.25;;;23.90;92.20;;;;;;5074314;28;20063;-54
2022/01/19 07:05:12;;;;;;;12.15;2.92;;;24.00;92.40;;;;;;5076087;28;20037;-56
2022/01/19 07:07:39;;;;;;;13.80;2.72;;;24.00;92.20;;;;;;5075335;28;20025;-56
2022/01/19 07:10:08;;;;;;;15.77;3.33;;;24.00;92.20;;;;;;5075735;28;20032;-58
2022/01/19 07:12:35;;;;;;;11.38;3.00;;;23.90;92.10;;;;;;5074772;28;20074;-55
2022/01/19 07:15:04;;;;;;;11.30;2.47;;;23.90;92.10;;;;;;5075306;28;20088;-58
2022/01/19 07:17:31;;;;;;;8.80;2.55;;;23.90;92.00;;;;;;5075264;28;20471;-57
2022/01/19 07:19:59;;;;;;;12.43;3.58;;;23.90;92.20;;;;;;5074892;28;20115;-58
2022/01/19 07:22:26;;;;;;;11.00;2.88;;;23.80;91.90;;;;;;5056309;28;20029;-59
2022/01/19 07:24:53;;;;;;;11.75;3.00;;;23.80;92.10;;;;;;5074417;28;20088;-54
2022/01/19 07:27:21;;;;;;;12.63;3.55;;;23.80;92.10;;;;;;5074644;28;20025;-45
2022/01/19 07:29:48;;;;;;;13.48;3.90;;;23.80;92.20;;;;;;5073968;28;20035;-58
2022/01/19 07:32:15;;;;;;;12.70;2.80;;;23.80;92.00;;;;;;5074098;28;20060;-58
2022/01/19 07:34:43;;;;;;;11.38;3.45;;;23.70;91.70;;;;;;5072673;28;20072;-59
2022/01/19 07:37:11;;;;;;;9.70;2.92;;;23.70;91.80;;;;;;5074163;28;20029;-56
2022/01/19 07:39:39;;;;;;;13.30;3.30;;;23.60;91.60;;;;;;5074134;28;20028;-57
2022/01/19 07:42:07;;;;;;;13.20;3.10;;;23.70;91.70;;;;;;5073695;28;20059;-52
2022/01/19 07:44:34;;;;;;;10.48;2.88;;;23.70;91.70;;;;;;5073913;28;20032;-53
2022/01/19 07:47:02;;;;;;;12.13;2.58;;;23.70;91.50;;;;;;5072498;28;20031;-55
2022/01/19 07:49:29;;;;;;;13.18;3.95;;;23.70;91.90;;;;;;5073323;28;20052;-53
2022/01/19 07:51:56;;;;;;;12.25;2.75;;;23.70;91.20;;;;;;5073543;28;20512;-56
2022/01/19 07:54:24;;;;;;;14.20;3.45;;;23.60;91.50;;;;;;5074828;28;20113;-52
2022/01/19 07:56:51;;;;;;;17.45;3.72;;;23.60;91.50;;;;;;5074841;28;20027;-55
2022/01/19 07:59:19;;;;;;;11.25;3.17;;;23.70;91.70;;;;;;5073851;28;20099;-59
2022/01/19 08:01:46;;;;;;;20.35;3.47;;;23.60;91.50;;;;;;5074040;28;20418;-51
2022/01/19 08:04:14;;;;;;;19.52;3.85;;;23.60;91.60;;;;;;5073723;28;20051;-53
2022/01/19 08:06:41;;;;;;;14.95;3.38;;;23.60;91.10;;;;;;5073592;28;20067;-55
2022/01/19 08:09:09;;;;;;;9.27;2.70;;;23.50;90.70;;;;;;5073755;28;20029;-56
2022/01/19 08:11:36;;;;;;;17.27;3.83;;;23.50;91.50;;;;;;5073344;28;20432;-58
2022/01/19 08:14:04;;;;;;;21.17;3.80;;;23.50;90.90;;;;;;5073437;28;20190;-61
2022/01/19 08:16:31;;;;;;;17.60;4.50;;;23.30;90.40;;;;;;5073207;28;20020;-56
2022/01/19 08:18:58;;;;;;;16.55;3.55;;;23.20;90.50;;;;;;5073357;28;20411;-59
2022/01/19 08:21:26;;;;;;;17.42;3.40;;;23.20;90.10;;;;;;5072268;28;20021;-56
2022/01/19 08:23:53;;;;;;;17.67;4.32;;;23.20;90.30;;;;;;5071837;28;20451;-60
2022/01/19 08:26:21;;;;;;;22.42;4.38;;;23.20;91.00;;;;;;5073071;28;20025;-57
2022/01/19 08:28:48;;;;;;;18.90;3.88;;;23.20;91.10;;;;;;5073387;28;20024;-54
2022/01/19 08:31:16;;;;;;;13.02;2.92;;;23.30;90.60;;;;;;5073601;28;20134;-54
2022/01/19 08:33:43;;;;;;;16.67;3.78;;;23.20;91.10;;;;;;5073149;28;20017;-57
2022/01/19 08:36:10;;;;;;;16.60;3.42;;;23.20;89.90;;;;;;5072877;28;20082;-60
2022/01/19 08:38:40;;;;;;;16.52;3.40;;;23.20;88.50;;;;;;5073534;28;20029;-62
2022/01/19 08:41:08;;;;;;;13.00;3.65;;;23.20;91.30;;;;;;5074047;28;20028;-58
2022/01/19 08:43:35;;;;;;;15.15;4.78;;;23.30;91.70;;;;;;5073407;28;20024;-56
2022/01/19 08:46:03;;;;;;;13.55;3.60;;;23.30;92.10;;;;;;5072880;28;20506;-62
2022/01/19 08:48:30;;;;;;;17.90;4.13;;;23.30;92.80;;;;;;5073959;28;20025;-62
2022/01/19 08:50:58;;;;;;;24.95;5.18;;;23.20;92.00;;;;;;5073053;28;20024;-64
2022/01/19 08:53:26;;;;;;;15.43;4.22;;;23.20;92.50;;;;;;5073159;28;20343;-59
2022/01/19 08:55:53;;;;;;;18.02;4.80;;;23.30;93.10;;;;;;5071023;28;20092;-59
2022/01/19 08:58:21;;;;;;;28.15;5.18;;;23.30;92.40;;;;;;5072863;28;20020;-61
2022/01/19 09:00:48;;;;;;;21.90;5.22;;;23.30;93.00;;;;;;5072592;28;20035;-64
2022/01/19 09:03:17;;;;;;;13.35;3.80;;;23.30;93.00;;;;;;5072735;28;20103;-65
2022/01/19 09:05:45;;;;;;;20.38;4.28;;;23.20;92.80;;;;;;5072483;28;20066;-60
2022/01/19 09:08:12;;;;;;;21.25;4.63;;;23.20;92.50;;;;;;5072287;28;20055;-59
2022/01/19 09:10:41;;;;;;;21.52;4.18;;;23.10;91.60;;;;;;5072812;28;20028;-59
2022/01/19 09:13:09;;;;;;;15.48;3.53;;;23.10;91.50;;;;;;5072433;28;20025;-58
2022/01/19 09:15:37;;;;;;;13.43;3.20;;;23.00;90.90;;;;;;5072802;28;20085;-62
2022/01/19 09:18:04;;;;;;;16.40;3.85;;;23.00;91.90;;;;;;5064208;28;20040;-55
2022/01/19 09:20:32;;;;;;;14.25;3.33;;;23.00;91.50;;;;;;5069146;28;20021;-53
2022/01/19 09:22:59;;;;;;;17.17;4.18;;;23.00;91.70;;;;;;5065722;28;20430;-58
2022/01/19 09:25:27;;;;;;;12.85;2.88;;;23.10;91.30;;;;;;5067280;28;20116;-52
2022/01/19 09:27:54;;;;;;;15.80;3.65;;;23.10;91.60;;;;;;5068727;28;20044;-60
2022/01/19 09:30:25;;;;;;;16.95;4.20;;;23.10;91.40;;;;;;5063607;28;20092;-54
2022/01/19 09:33:06;;;;;;;11.82;2.90;;;23.20;91.50;;;;;;5063916;28;20028;-56
2022/01/19 09:38:33;;;;;;;15.88;3.30;;;23.20;91.50;;;;;;5055596;28;20124;-55
2022/01/19 09:41:01;;;;;;;20.00;4.07;;;23.20;91.40;;;;;;5065296;28;20544;-58
2022/01/19 09:43:28;;;;;;;15.52;3.75;;;23.20;91.50;;;;;;5072161;28;20108;-56
2022/01/19 09:46:00;;;;;;;11.50;3.40;;;23.20;91.30;;;;;;5071833;28;20390;-56
2022/01/19 09:48:29;;;;;;;12.18;3.10;;;23.20;91.30;;;;;;5070802;28;20078;-55
2022/01/19 09:50:57;;;;;;;11.43;3.55;;;23.20;91.20;;;;;;5072058;28;20028;-58
2022/01/19 09:53:26;;;;;;;14.55;3.80;;;23.20;91.30;;;;;;5072138;28;20082;-58
2022/01/19 09:55:53;;;;;;;11.63;3.33;;;23.20;91.20;;;;;;5071758;28;20340;-55
2022/01/19 09:58:22;;;;;;;13.20;3.47;;;23.30;91.30;;;;;;5072378;28;20082;-60
2022/01/19 10:00:51;;;;;;;10.68;2.97;;;23.20;91.30;;;;;;5071800;28;20452;-57
2022/01/19 10:03:25;;;;;;;12.13;3.47;;;23.20;91.30;;;;;;5072062;28;20037;-55
2022/01/19 10:06:07;;;;;;;7.43;2.78;;;23.20;91.30;;;;;;5070515;28;20037;-55
2022/01/19 10:08:44;;;;;;;11.85;3.47;;;23.20;91.30;;;;;;5071951;28;20539;-55
2022/01/19 10:11:14;;;;;;;15.70;3.28;;;23.30;91.40;;;;;;5071552;28;20419;-54
2022/01/19 10:17:00;;;;;;;10.85;2.88;;;23.30;91.40;;;;;;5072466;28;20108;-55
2022/01/19 10:19:32;;;;;;;10.50;2.38;;;23.20;91.40;;;;;;5071354;28;20093;-55
2022/01/19 10:22:20;;;;;;;11.52;3.20;;;23.20;91.30;;;;;;5070423;28;20025;-57
2022/01/19 10:25:03;;;;;;;12.15;2.60;;;23.20;91.40;;;;;;5071708;28;20036;-56
2022/01/19 10:27:48;;;;;;;12.23;3.28;;;23.20;91.40;;;;;;5071739;28;20033;-59
2022/01/19 10:30:24;;;;;;;8.88;3.10;;;23.20;91.40;;;;;;5070229;28;20024;-58
2022/01/19 10:32:55;;;;;;;9.57;2.42;;;23.20;91.40;;;;;;5072109;28;20055;-56
2022/01/19 10:35:37;;;;;;;9.00;2.72;;;23.20;91.40;;;;;;5076741;28;20448;-54
2022/01/19 10:38:17;;;;;;;13.63;2.72;;;23.20;91.40;;;;;;5076627;28;20048;-60
2022/01/19 10:40:55;;;;;;;10.32;2.85;;;23.10;91.30;;;;;;5075910;28;20032;-51
2022/01/19 10:43:27;;;;;;;7.90;2.55;;;23.20;91.40;;;;;;5075666;28;20074;-57
2022/01/19 10:45:57;;;;;;;6.97;2.55;;;23.10;91.40;;;;;;5075320;28;20089;-54
2022/01/19 10:48:39;;;;;;;8.18;2.58;;;23.10;91.40;;;;;;5075092;28;20039;-56
2022/01/19 10:51:28;;;;;;;8.02;2.92;;;23.10;91.40;;;;;;5075498;28;20133;-57
2022/01/19 10:54:19;;;;;;;11.73;3.15;;;23.10;91.70;;;;;;5074790;28;20035;-58
2022/01/19 10:56:54;;;;;;;12.70;3.08;;;23.10;91.40;;;;;;5074876;28;20028;-52
2022/01/19 10:59:30;;;;;;;9.95;2.85;;;23.10;91.40;;;;;;5075230;28;20547;-56
2022/01/19 11:02:00;;;;;;;8.65;2.65;;;23.10;91.30;;;;;;5075056;28;20025;-60
2022/01/19 11:04:31;;;;;;;9.90;2.95;;;23.10;91.30;;;;;;5074993;28;20447;-55
2022/01/19 11:07:05;;;;;;;9.93;2.70;;;23.00;91.30;;;;;;5075215;28;20029;-58
2022/01/19 11:10:08;;;;;;;13.55;3.15;;;23.10;91.30;;;;;;5074972;28;20021;-56
2022/01/19 11:12:28;;;;;;;8.10;2.67;;;23.00;91.20;;;;;;5074353;28;20028;-54
2022/01/19 11:14:55;;;;;;;7.10;1.95;;;23.00;91.30;;;;;;5074756;28;20043;-54
2022/01/19 11:17:23;;;;;;;9.63;3.35;;;23.00;91.30;;;;;;5074968;28;20032;-55
2022/01/19 11:19:50;;;;;;;9.40;2.55;;;23.00;91.20;;;;;;5074479;28;20026;-54
2022/01/19 11:22:36;;;;;;;9.90;2.42;;;23.00;91.30;;;;;;5074906;28;20045;-54
2022/01/19 11:25:24;;;;;;;10.10;2.38;;;23.00;91.20;;;;;;5074547;28;20447;-57
2022/01/19 11:27:53;;;;;;;10.13;3.30;;;23.00;91.20;;;;;;5073204;28;20021;-59
2022/01/19 11:30:33;;;;;;;9.65;2.72;;;23.00;91.20;;;;;;5074781;28;20012;-60
2022/01/19 11:33:25;;;;;;;7.00;2.05;;;23.00;91.20;;;;;;5074445;28;20558;-53
2022/01/19 11:36:05;;;;;;;9.82;2.80;;;22.90;91.20;;;;;;5074200;28;20025;-55
2022/01/19 11:38:50;;;;;;;8.07;2.50;;;23.00;91.10;;;;;;5074247;28;20036;-58
2022/01/19 11:41:18;;;;;;;10.63;2.58;;;23.00;91.20;;;;;;5074489;28;20020;-58
2022/01/19 11:43:58;;;;;;;7.90;1.88;;;22.90;91.10;;;;;;5074073;28;20471;-51
2022/01/19 11:46:36;;;;;;;7.80;2.20;;;22.90;91.10;;;;;;5073426;28;20032;-57
2022/01/19 11:49:05;;;;;;;7.93;2.08;;;23.00;91.10;;;;;;5073930;28;20020;-53
2022/01/19 11:51:36;;;;;;;8.00;2.83;;;22.90;91.10;;;;;;5072852;28;20090;-57
2022/01/19 11:54:12;;;;;;;8.50;2.40;;;22.90;91.10;;;;;;5073916;28;20016;-55
2022/01/19 11:57:07;;;;;;;5.53;2.05;;;22.90;91.00;;;;;;5074114;28;20414;-57
2022/01/19 11:59:55;;;;;;;5.43;1.90;;;23.00;91.10;;;;;;5074044;28;20021;-58
2022/01/19 12:02:27;;;;;;;8.27;2.30;;;22.90;91.10;;;;;;5073897;28;20039;-58
2022/01/19 12:05:02;;;;;;;7.18;2.40;;;22.90;91.10;;;;;;5073778;28;20564;-61
2022/01/19 12:07:53;;;;;;;6.43;2.42;;;22.90;91.10;;;;;;5073901;28;20025;-60
2022/01/19 12:10:32;;;;;;;10.02;2.90;;;22.90;91.10;;;;;;5073812;28;20025;-50
2022/01/19 12:13:55;;;;;;;5.80;2.22;;;22.90;91.10;;;;;;5073875;28;20368;-58
2022/01/19 12:16:48;;;;;;;7.68;1.92;;;22.90;91.10;;;;;;5073261;28;20033;-55
2022/01/19 12:19:20;;;;;;;7.38;1.70;;;23.00;91.10;;;;;;5073473;28;20032;-56
2022/01/19 12:21:55;;;;;;;7.78;2.50;;;22.90;91.00;;;;;;5074107;28;20525;-59
2022/01/19 12:24:36;;;;;;;7.20;2.35;;;22.90;91.00;;;;;;5073499;28;20044;-58
2022/01/19 12:27:31;;;;;;;9.88;3.03;;;22.90;91.00;;;;;;5073744;28;20024;-59
2022/01/19 12:30:10;;;;;;;11.02;2.70;;;22.90;90.90;;;;;;5071995;28;20037;-58
2022/01/19 12:33:08;;;;;;;8.88;2.40;;;22.90;90.90;;;;;;5073407;28;20025;-60
2022/01/19 12:35:37;;;;;;;7.05;2.33;;;22.90;90.90;;;;;;5071217;28;20427;-58
2022/01/19 12:38:18;;;;;;;10.93;2.60;;;22.90;90.90;;;;;;5073364;28;20036;-60
2022/01/19 12:40:47;;;;;;;9.50;3.00;;;22.90;90.90;;;;;;5073359;28;20052;-60
2022/01/19 12:43:37;;;;;;;6.78;2.45;;;22.90;90.80;;;;;;5073354;28;20032;-60
2022/01/19 12:46:08;;;;;;;5.90;2.05;;;22.90;90.80;;;;;;5073401;28;20114;-56
2022/01/19 12:48:40;;;;;;;10.23;3.30;;;22.90;90.80;;;;;;5073253;28;20029;-59
2022/01/19 12:51:27;;;;;;;8.23;2.42;;;22.90;90.80;;;;;;5073506;28;20425;-58
2022/01/19 12:53:55;;;;;;;6.78;2.10;;;22.90;90.80;;;;;;5073180;28;20070;-57
2022/01/19 12:56:22;;;;;;;9.30;2.20;;;22.90;91.10;;;;;;5073300;28;20032;-55
2022/01/19 12:58:50;;;;;;;5.95;1.80;;;22.90;90.80;;;;;;5072173;28;20082;-58
2022/01/19 13:01:18;;;;;;;12.63;3.67;;;22.90;90.80;;;;;;5072942;28;20099;-59
2022/01/19 13:03:46;;;;;;;6.65;2.00;;;22.90;90.80;;;;;;5073130;28;20096;-54
2022/01/19 13:06:17;;;;;;;6.90;2.58;;;22.90;90.80;;;;;;5072629;28;20051;-58
2022/01/19 13:09:02;;;;;;;9.47;2.57;;;22.90;90.70;;;;;;5072236;28;20036;-57
2022/01/19 13:11:48;;;;;;;6.82;1.92;;;22.90;90.70;;;;;;5073013;28;20040;-58
2022/01/19 13:14:17;;;;;;;6.90;2.00;;;22.90;90.70;;;;;;5073068;28;20021;-61
2022/01/19 13:16:49;;;;;;;8.60;2.17;;;22.90;90.70;;;;;;5075519;28;20025;-56
2022/01/19 13:19:21;;;;;;;4.40;1.95;;;22.90;90.70;;;;;;5074747;28;20482;-56
2022/01/19 13:21:51;;;;;;;6.10;1.98;;;22.90;90.60;;;;;;5073164;28;20025;-60
2022/01/19 13:24:26;;;;;;;6.72;2.20;;;22.90;90.60;;;;;;5072525;28;20028;-59
2022/01/19 13:27:03;;;;;;;5.55;1.55;;;22.90;90.60;;;;;;5072505;28;20029;-60
2022/01/19 13:29:34;;;;;;;8.82;2.60;;;22.90;90.60;;;;;;5072457;28;20032;-61
2022/01/19 13:32:04;;;;;;;7.75;2.20;;;22.80;90.60;;;;;;5072635;28;20028;-60
2022/01/19 13:34:34;;;;;;;6.30;2.33;;;22.90;90.60;;;;;;5072259;28;20059;-57
2022/01/19 13:37:04;;;;;;;6.13;2.22;;;22.90;90.60;;;;;;5072500;28;20020;-60
2022/01/19 13:39:33;;;;;;;8.27;2.15;;;22.80;90.60;;;;;;5072267;28;20024;-59
2022/01/19 13:42:03;;;;;;;7.10;1.98;;;22.80;90.50;;;;;;5072205;28;20368;-54
2022/01/19 13:44:35;;;;;;;7.97;2.38;;;22.80;90.50;;;;;;5072314;28;20112;-61
2022/01/19 13:47:25;;;;;;;6.53;2.03;;;22.80;90.50;;;;;;5072216;28;20513;-60
2022/01/19 13:49:56;;;;;;;7.25;2.15;;;22.80;90.50;;;;;;5071927;28;20035;-55
2022/01/19 13:52:26;;;;;;;9.07;2.28;;;22.80;90.50;;;;;;5070986;28;20060;-59
2022/01/19 13:54:54;;;;;;;7.18;2.25;;;22.80;90.50;;;;;;5072476;28;20055;-59
2022/01/19 13:57:29;;;;;;;8.30;2.70;;;22.80;90.50;;;;;;5054413;28;20041;-60
2022/01/19 14:00:15;;;;;;;8.43;1.67;;;22.80;90.40;;;;;;5071968;28;20028;-58
2022/01/19 14:03:00;;;;;;;7.47;2.30;;;22.80;90.40;;;;;;5072692;28;20077;-59
2022/01/19 14:05:46;;;;;;;9.10;2.05;;;22.80;90.40;;;;;;5072342;28;20051;-59
2022/01/19 14:08:14;;;;;;;8.32;2.20;;;22.80;90.40;;;;;;5072770;28;20028;-58
2022/01/19 14:10:47;;;;;;;5.75;1.92;;;22.80;90.40;;;;;;5078635;28;20039;-59
2022/01/19 14:13:26;;;;;;;6.22;1.98;;;22.80;90.40;;;;;;5078611;28;20020;-61
2022/01/19 14:15:55;;;;;;;10.35;2.28;;;22.80;90.40;;;;;;5078436;28;20025;-60
2022/01/19 14:18:24;;;;;;;5.00;2.08;;;22.80;90.30;;;;;;5077215;28;20333;-58
2022/01/19 14:21:20;;;;;;;7.03;2.10;;;22.70;90.30;;;;;;5077449;28;20104;-57
2022/01/19 14:23:59;;;;;;;6.68;1.83;;;22.80;90.30;;;;;;5065783;28;20434;-54
2022/01/19 14:26:27;;;;;;;5.15;1.83;;;22.70;90.20;;;;;;5078508;28;20509;-56
2022/01/19 14:29:24;;;;;;;7.22;2.03;;;22.70;90.20;;;;;;5078613;28;20092;-57
2022/01/19 14:31:52;;;;;;;8.18;2.80;;;22.80;90.20;;;;;;5070218;28;20032;-59
2022/01/19 14:34:42;;;;;;;6.43;2.55;;;22.80;90.20;;;;;;5078618;28;20020;-58